createdAt,value
2022-08-21T00:01:57.118Z,4.63
2022-08-21T00:11:59.644Z,3.35
2022-08-21T00:22:02.264Z,3.47
2022-08-21T00:32:04.934Z,4.40
2022-08-21T00:42:07.512Z,4.10
2022-08-21T00:52:16.797Z,4.60
2022-08-21T01:02:21.193Z,4.13
2022-08-21T01:12:42.872Z,4.13
2022-08-21T01:22:45.337Z,3.72
2022-08-21T01:32:48.922Z,4.13
2022-08-21T01:42:52.471Z,4.35
2022-08-21T01:52:55.063Z,4.40
2022-08-21T02:13:03.896Z,4.28
2022-08-21T02:23:08.464Z,4.00
2022-08-21T02:33:12.097Z,4.60
2022-08-21T02:43:16.552Z,4.47
2022-08-21T02:53:19.277Z,4.50
2022-08-21T03:03:23.360Z,4.22
2022-08-21T03:13:25.794Z,4.18
2022-08-21T03:23:32.593Z,5.00
2022-08-21T03:33:35.257Z,4.53
2022-08-21T03:43:38.690Z,4.03
2022-08-21T03:53:41.155Z,4.80
2022-08-21T04:03:44.560Z,4.90
2022-08-21T04:13:47.345Z,5.10
2022-08-21T04:33:52.903Z,4.43
2022-08-21T04:43:56.532Z,4.97
2022-08-21T04:54:04.372Z,5.97
2022-08-21T05:04:13.012Z,5.60
2022-08-21T05:14:16.011Z,5.50
2022-08-21T05:24:19.067Z,5.95
2022-08-21T05:34:23.814Z,6.05
2022-08-21T05:44:26.797Z,6.88
2022-08-21T05:54:29.839Z,7.10
2022-08-21T06:04:37.034Z,6.85
2022-08-21T06:14:41.898Z,7.00
2022-08-21T06:24:44.704Z,5.72
2022-08-21T06:34:48.172Z,5.82
2022-08-21T06:44:50.821Z,5.78
2022-08-21T06:54:53.754Z,5.10
2022-08-21T07:04:56.810Z,5.60
2022-08-21T07:14:59.774Z,4.65
2022-08-21T07:25:02.321Z,5.13
2022-08-21T07:35:05.300Z,4.20
2022-08-21T07:45:08.300Z,5.43
2022-08-21T07:55:16.963Z,3.65
2022-08-21T08:05:22.631Z,3.85
2022-08-21T08:15:32.367Z,4.43
2022-08-21T08:25:37.084Z,3.80
2022-08-21T08:35:41.386Z,4.40
2022-08-21T08:46:20.624Z,3.70
2022-08-21T08:56:31.710Z,3.90
2022-08-21T09:06:53.132Z,4.07
2022-08-21T09:17:10.853Z,4.07
2022-08-21T09:27:18.767Z,4.60
2022-08-21T09:37:21.862Z,4.03
2022-08-21T09:47:35.052Z,4.72
2022-08-21T09:57:46.283Z,7.25
2022-08-21T10:07:49.815Z,6.13
2022-08-21T10:18:21.402Z,6.30
2022-08-21T10:28:59.448Z,6.53
2022-08-21T10:39:35.777Z,5.95
2022-08-21T10:50:19.393Z,5.47
2022-08-21T11:00:24.462Z,6.07
2022-08-21T11:10:40.771Z,6.50
2022-08-21T11:21:00.450Z,6.78
2022-08-21T11:31:28.213Z,9.68
2022-08-21T11:41:38.664Z,4.60
2022-08-21T11:52:03.412Z,4.57
2022-08-21T12:02:23.654Z,4.57
2022-08-21T12:12:36.326Z,4.03
2022-08-21T12:22:41.935Z,3.28
2022-08-21T12:32:47.899Z,3.03
2022-08-21T12:42:59.346Z,3.55
2022-08-21T12:53:20.954Z,3.80
2022-08-21T13:03:24.752Z,3.83
2022-08-21T13:13:28.780Z,3.72
2022-08-21T13:23:32.065Z,2.97
2022-08-21T13:33:37.376Z,4.10
2022-08-21T13:43:47.846Z,3.33
2022-08-21T13:53:53.584Z,3.35
2022-08-21T14:04:03.592Z,3.35
2022-08-21T14:14:22.466Z,3.05
2022-08-21T14:34:34.188Z,3.28
2022-08-21T14:44:39.887Z,3.00
2022-08-21T14:54:42.823Z,3.22
2022-08-21T15:04:45.882Z,3.08
2022-08-21T15:14:48.901Z,3.20
2022-08-21T15:24:51.744Z,2.92
2022-08-21T15:34:55.731Z,2.85
2022-08-21T15:44:59.297Z,3.05
2022-08-21T15:55:01.988Z,3.20
2022-08-21T16:05:05.438Z,3.30
2022-08-21T16:15:20.376Z,3.03
2022-08-21T16:25:24.005Z,3.58
2022-08-21T16:35:26.855Z,3.28
2022-08-21T16:45:33.458Z,3.58
2022-08-21T16:55:45.770Z,4.22
2022-08-21T17:05:49.041Z,3.47
2022-08-21T17:15:52.407Z,3.35
2022-08-21T17:25:57.164Z,2.83
2022-08-21T17:36:02.108Z,3.10
2022-08-21T17:46:15.039Z,3.42
2022-08-21T17:56:22.372Z,3.22
2022-08-21T18:06:25.889Z,2.67
2022-08-21T18:16:31.954Z,3.08
2022-08-21T18:26:40.025Z,3.25
2022-08-21T18:36:43.841Z,3.00
2022-08-21T18:47:48.554Z,2.67
2022-08-21T18:57:59.791Z,3.45
2022-08-21T19:08:07.212Z,3.45
2022-08-21T19:18:18.716Z,2.72
2022-08-21T19:28:36.896Z,2.95
2022-08-21T19:38:41.696Z,3.38
2022-08-21T19:48:50.925Z,3.40
2022-08-21T19:59:05.988Z,3.50
2022-08-21T20:09:15.831Z,3.88
2022-08-21T20:19:29.030Z,4.20
2022-08-21T20:29:39.501Z,3.75
2022-08-21T20:39:42.861Z,3.85
2022-08-21T20:49:50.978Z,4.53
2022-08-21T21:00:14.430Z,4.53
2022-08-21T21:10:36.771Z,5.00
2022-08-21T21:21:00.195Z,5.57
2022-08-21T21:31:03.806Z,6.43
2022-08-21T21:41:09.060Z,7.18
2022-08-21T21:51:42.615Z,6.20
2022-08-21T22:12:28.999Z,7.13
2022-08-21T22:22:33.538Z,7.28
2022-08-21T22:32:52.423Z,6.93
2022-08-21T22:43:17.753Z,8.07
2022-08-21T22:53:26.902Z,7.45
2022-08-21T23:03:43.750Z,6.90
2022-08-21T23:13:48.851Z,7.15
2022-08-21T23:24:19.488Z,7.40
2022-08-21T23:34:56.742Z,7.72
2022-08-21T23:45:41.099Z,7.53
2022-08-21T23:56:32.358Z,7.82
